Time;durP1;ratioP1;P1;durP2;ratioP2;P2;SDS_P1;SDS_P2;PMS_P1;PMS_P2;Temp;Humidity;BMP_temperature;BMP_pressure;BME280_temperature;BME280_humidity;BME280_pressure;Samples;Min_cycle;Max_cycle;Signal;HPM_P1;HPM_P2
2022/01/24 00:00:52;;;;;;;44.25;24.25;;;;;;;;;;4995854;28;20042;-68
2022/01/24 00:03:18;;;;;;;50.10;25.10;;;;;;;;;;4982485;28;20070;-69
2022/01/24 00:05:44;;;;;;;44.30;25.40;;;;;;;;;;4985290;28;20030;-69
2022/01/24 00:08:10;;;;;;;42.90;24.60;;;;;;;;;;4983467;28;20030;-70
2022/01/24 00:10:39;;;;;;;42.40;24.02;;;;;;;;;;4986531;28;20480;-69
2022/01/24 00:18:25;;;;;;;38.28;19.45;;;;;;;;;;4982723;28;20437;-69
2022/01/24 00:26:46;;;;;;;35.35;18.77;;;;;;;;;;4977506;28;20105;-69
2022/01/24 00:29:13;;;;;;;33.08;18.80;;;;;;;;;;4983033;28;20053;-69
2022/01/24 00:31:39;;;;;;;34.35;19.20;;;;;;;;;;4981583;28;20109;-70
2022/01/24 00:34:05;;;;;;;35.15;18.60;;;;;;;;;;4979052;28;20535;-69
2022/01/24 00:36:31;;;;;;;44.30;25.33;;;;;;;;;;4989420;28;20259;-69
2022/01/24 00:38:57;;;;;;;46.80;24.23;;;;;;;;;;4982894;28;20034;-69
2022/01/24 00:41:23;;;;;;;33.17;17.38;;;;;;;;;;4977258;28;20121;-69
2022/01/24 00:46:41;;;;;;;34.97;19.50;;;;;;;;;;4981516;28;20104;-69
2022/01/24 00:57:02;;;;;;;53.13;27.50;;;;;;;;;;4983292;28;20500;-69
2022/01/24 00:59:30;;;;;;;28.67;16.77;;;;;;;;;;4980915;28;20476;-69
2022/01/24 01:01:56;;;;;;;27.27;15.85;;;;;;;;;;4999245;28;20085;-69
2022/01/24 01:04:29;;;;;;;28.35;15.73;;;;;;;;;;4978201;28;20034;-70
2022/01/24 01:06:56;;;;;;;28.77;16.05;;;;;;;;;;4985962;28;20037;-70
2022/01/24 01:20:26;;;;;;;36.88;20.00;;;;;;;;;;4975855;28;20093;-69
2022/01/24 01:22:52;;;;;;;30.50;17.23;;;;;;;;;;4985606;28;20122;-69
2022/01/24 01:25:18;;;;;;;29.13;16.67;;;;;;;;;;4975013;28;20077;-68
2022/01/24 01:27:47;;;;;;;28.45;14.95;;;;;;;;;;4980364;28;20096;-68
2022/01/24 01:30:18;;;;;;;28.30;16.15;;;;;;;;;;4972753;28;20030;-69
2022/01/24 01:32:56;;;;;;;28.20;16.00;;;;;;;;;;4977344;28;20031;-68
2022/01/24 01:57:15;;;;;;;38.40;19.65;;;;;;;;;;4975700;28;20101;-69
2022/01/24 01:59:41;;;;;;;37.20;19.50;;;;;;;;;;4985452;28;20050;-68
2022/01/24 02:02:07;;;;;;;36.80;21.48;;;;;;;;;;4977816;28;20034;-69
2022/01/24 02:04:33;;;;;;;41.05;21.42;;;;;;;;;;4984912;28;20104;-69
2022/01/24 02:07:00;;;;;;;35.72;19.38;;;;;;;;;;4978934;28;20031;-69
2022/01/24 02:09:30;;;;;;;35.45;19.58;;;;;;;;;;4984529;28;20460;-69
2022/01/24 02:11:56;;;;;;;37.47;18.92;;;;;;;;;;4983663;28;20026;-69
2022/01/24 02:14:28;;;;;;;34.13;18.77;;;;;;;;;;4982560;28;20081;-69
2022/01/24 02:17:01;;;;;;;36.10;19.45;;;;;;;;;;4973051;28;20441;-70
2022/01/24 02:19:49;;;;;;;35.60;19.30;;;;;;;;;;4981282;28;20038;-69
2022/01/24 02:25:01;;;;;;;42.78;21.60;;;;;;;;;;4983433;28;20076;-69
2022/01/24 02:27:39;;;;;;;41.40;21.17;;;;;;;;;;4975082;28;20030;-70
2022/01/24 02:32:41;;;;;;;44.58;22.17;;;;;;;;;;4972940;28;20101;-70
2022/01/24 02:35:08;;;;;;;39.22;22.15;;;;;;;;;;4983929;28;20022;-69
2022/01/24 02:37:34;;;;;;;41.67;21.55;;;;;;;;;;4985197;28;20060;-69
2022/01/24 02:40:14;;;;;;;39.30;21.70;;;;;;;;;;4984082;28;20038;-69
2022/01/24 02:48:26;;;;;;;41.53;22.10;;;;;;;;;;4977785;28;20077;-69
2022/01/24 02:53:19;;;;;;;41.13;22.75;;;;;;;;;;4976299;28;20030;-69
2022/01/24 02:55:45;;;;;;;41.13;22.38;;;;;;;;;;4986319;28;20053;-71
2022/01/24 02:58:11;;;;;;;41.78;22.98;;;;;;;;;;4982428;28;20061;-69
2022/01/24 03:00:39;;;;;;;44.22;24.45;;;;;;;;;;4973845;28;20070;-68
2022/01/24 03:03:05;;;;;;;48.40;25.05;;;;;;;;;;4980946;28;20235;-68
2022/01/24 03:05:31;;;;;;;50.45;25.73;;;;;;;;;;4982444;28;20477;-69
2022/01/24 03:07:57;;;;;;;51.00;25.95;;;;;;;;;;4994580;28;20224;-70
2022/01/24 03:10:27;;;;;;;49.50;25.55;;;;;;;;;;4974410;28;20051;-69
2022/01/24 03:13:32;;;;;;;47.83;25.20;;;;;;;;;;4976388;28;20034;-70
2022/01/24 03:15:46;;;;;;;47.85;26.85;;;;;;;;;;4988972;28;20121;-69
2022/01/24 03:18:12;;;;;;;52.03;26.52;;;;;;;;;;4984402;28;20073;-68
2022/01/24 03:20:38;;;;;;;52.65;27.90;;;;;;;;;;4984646;28;20035;-68
2022/01/24 03:23:04;;;;;;;54.42;27.88;;;;;;;;;;4976361;28;20058;-69
2022/01/24 03:25:31;;;;;;;57.08;28.70;;;;;;;;;;4977961;28;20078;-69
2022/01/24 03:27:57;;;;;;;55.75;29.02;;;;;;;;;;4987526;28;20046;-69
2022/01/24 03:30:24;;;;;;;57.97;28.52;;;;;;;;;;4975382;28;20025;-69
2022/01/24 03:32:50;;;;;;;57.60;29.27;;;;;;;;;;4980439;28;20488;-70
2022/01/24 03:35:17;;;;;;;56.75;29.20;;;;;;;;;;4985622;28;20038;-69
2022/01/24 03:37:43;;;;;;;55.13;29.90;;;;;;;;;;4980266;28;20035;-68
2022/01/24 03:40:09;;;;;;;61.30;32.20;;;;;;;;;;4978415;28;20037;-68
2022/01/24 03:42:36;;;;;;;61.00;30.90;;;;;;;;;;4987771;28;20034;-68
2022/01/24 03:45:05;;;;;;;57.83;30.23;;;;;;;;;;4981291;28;20117;-69
2022/01/24 03:50:03;;;;;;;62.28;31.05;;;;;;;;;;4983914;28;20400;-68
2022/01/24 03:52:32;;;;;;;65.30;32.13;;;;;;;;;;4981440;28;20100;-68
2022/01/24 03:54:58;;;;;;;58.97;31.08;;;;;;;;;;4987584;28;20290;-69
2022/01/24 03:57:26;;;;;;;62.88;33.38;;;;;;;;;;4973779;28;20066;-70
2022/01/24 03:59:52;;;;;;;60.53;32.35;;;;;;;;;;4985818;28;20061;-70
2022/01/24 04:02:21;;;;;;;63.35;32.95;;;;;;;;;;4987838;28;20061;-70
2022/01/24 04:04:48;;;;;;;66.93;34.28;;;;;;;;;;4987312;28;20057;-69
2022/01/24 04:07:14;;;;;;;64.72;33.53;;;;;;;;;;4983562;28;20081;-69
2022/01/24 04:09:42;;;;;;;68.72;34.30;;;;;;;;;;4974843;28;20027;-68
2022/01/24 04:12:09;;;;;;;67.05;34.33;;;;;;;;;;4988549;28;20042;-68
2022/01/24 04:14:40;;;;;;;65.78;34.38;;;;;;;;;;4979467;28;20057;-69
2022/01/24 04:22:09;;;;;;;75.20;37.53;;;;;;;;;;4973526;28;20118;-68
2022/01/24 04:24:36;;;;;;;70.57;36.45;;;;;;;;;;4978076;28;20120;-69
2022/01/24 04:27:02;;;;;;;70.95;35.88;;;;;;;;;;4981147;28;20079;-68
2022/01/24 04:29:28;;;;;;;68.32;35.72;;;;;;;;;;4986466;28;20708;-70
2022/01/24 04:31:54;;;;;;;66.78;34.70;;;;;;;;;;4980630;28;20035;-69
2022/01/24 04:34:20;;;;;;;73.53;36.65;;;;;;;;;;4996367;28;20477;-71
2022/01/24 04:36:46;;;;;;;70.72;37.13;;;;;;;;;;4996586;28;20121;-70
2022/01/24 04:39:12;;;;;;;71.68;37.33;;;;;;;;;;4978274;28;20130;-69
2022/01/24 04:41:42;;;;;;;75.22;37.08;;;;;;;;;;4982825;28;20033;-69
2022/01/24 04:44:41;;;;;;;77.75;39.13;;;;;;;;;;4983244;28;20039;-69
2022/01/24 04:47:12;;;;;;;71.00;38.53;;;;;;;;;;4980551;28;20051;-68
2022/01/24 04:52:33;;;;;;;79.82;40.47;;;;;;;;;;4978242;28;20086;-68
2022/01/24 04:54:59;;;;;;;79.03;39.55;;;;;;;;;;4976229;28;20045;-69
2022/01/24 04:57:26;;;;;;;77.55;42.08;;;;;;;;;;4986362;28;20034;-69
2022/01/24 04:59:53;;;;;;;80.57;44.63;;;;;;;;;;4985060;28;20050;-69
2022/01/24 05:02:20;;;;;;;83.88;42.00;;;;;;;;;;4978139;28;20037;-69
2022/01/24 05:04:47;;;;;;;80.38;44.25;;;;;;;;;;4977040;28;20105;-69
2022/01/24 05:07:13;;;;;;;84.65;43.78;;;;;;;;;;4986329;28;20085;-69
2022/01/24 05:10:32;;;;;;;85.65;43.38;;;;;;;;;;4984151;28;20030;-69
2022/01/24 05:23:28;;;;;;;82.03;45.85;;;;;;;;;;4984927;28;20045;-69
2022/01/24 05:25:55;;;;;;;86.18;45.08;;;;;;;;;;4979942;28;20049;-69
2022/01/24 05:28:21;;;;;;;81.18;44.97;;;;;;;;;;4976168;28;20045;-70
2022/01/24 05:30:47;;;;;;;85.05;45.10;;;;;;;;;;4982610;28;20074;-69
2022/01/24 05:33:13;;;;;;;84.72;45.95;;;;;;;;;;4972233;28;20063;-69
2022/01/24 05:35:40;;;;;;;81.90;45.53;;;;;;;;;;4983276;28;20026;-70
2022/01/24 05:38:06;;;;;;;82.43;46.63;;;;;;;;;;4976475;28;20089;-70
2022/01/24 05:40:32;;;;;;;80.35;44.63;;;;;;;;;;4977427;28;20508;-69
2022/01/24 05:42:58;;;;;;;81.00;45.45;;;;;;;;;;4973141;28;20511;-69
2022/01/24 05:45:24;;;;;;;85.43;46.03;;;;;;;;;;4980396;28;20022;-69
2022/01/24 05:47:50;;;;;;;94.53;47.65;;;;;;;;;;4979601;28;20045;-68
2022/01/24 05:50:17;;;;;;;87.95;47.10;;;;;;;;;;4984054;28;20026;-69
2022/01/24 05:52:43;;;;;;;84.70;47.78;;;;;;;;;;4986167;28;20022;-69
2022/01/24 05:55:09;;;;;;;83.43;45.88;;;;;;;;;;4974657;28;20035;-69
2022/01/24 05:57:36;;;;;;;85.60;44.85;;;;;;;;;;4982120;28;20256;-69
2022/01/24 06:00:03;;;;;;;84.32;46.05;;;;;;;;;;4980080;28;20195;-69
2022/01/24 06:02:29;;;;;;;79.10;46.40;;;;;;;;;;4979153;28;20057;-69
2022/01/24 06:04:55;;;;;;;88.68;48.10;;;;;;;;;;4977066;28;20030;-69
2022/01/24 06:07:21;;;;;;;86.32;47.72;;;;;;;;;;4987247;28;20118;-69
2022/01/24 06:09:47;;;;;;;91.75;47.63;;;;;;;;;;4983185;28;20110;-70
2022/01/24 06:12:14;;;;;;;89.10;48.58;;;;;;;;;;4979653;28;20109;-70
2022/01/24 06:14:40;;;;;;;92.82;48.95;;;;;;;;;;4978581;28;20027;-69
2022/01/24 06:17:06;;;;;;;90.03;48.65;;;;;;;;;;4983296;28;20042;-69
2022/01/24 06:19:32;;;;;;;90.47;50.85;;;;;;;;;;5011479;28;20030;-69
2022/01/24 06:21:58;;;;;;;91.93;48.63;;;;;;;;;;4978645;28;20043;-69
2022/01/24 06:24:24;;;;;;;89.95;49.03;;;;;;;;;;4998039;28;20194;-69
2022/01/24 06:26:50;;;;;;;90.40;49.50;;;;;;;;;;4996332;28;20488;-69
2022/01/24 06:29:16;;;;;;;90.72;50.05;;;;;;;;;;4978738;28;20042;-70
2022/01/24 06:31:42;;;;;;;91.22;50.03;;;;;;;;;;4979390;28;20072;-69
2022/01/24 06:34:08;;;;;;;87.32;48.10;;;;;;;;;;4979504;28;20026;-70
2022/01/24 06:36:34;;;;;;;72.93;41.95;;;;;;;;;;4997415;28;20030;-69
2022/01/24 06:39:02;;;;;;;79.75;45.42;;;;;;;;;;4984408;28;20790;-69
2022/01/24 06:41:32;;;;;;;83.35;46.63;;;;;;;;;;4973852;28;20033;-69
2022/01/24 06:43:59;;;;;;;85.38;49.17;;;;;;;;;;5001080;28;20031;-69
2022/01/24 06:46:25;;;;;;;82.35;47.40;;;;;;;;;;4977149;28;20038;-70
2022/01/24 06:48:51;;;;;;;83.57;48.05;;;;;;;;;;4974727;28;20031;-69
2022/01/24 06:51:20;;;;;;;85.95;49.22;;;;;;;;;;4981828;28;20046;-69
2022/01/24 06:53:47;;;;;;;88.05;48.72;;;;;;;;;;4978540;28;20083;-69
2022/01/24 06:56:14;;;;;;;86.05;48.03;;;;;;;;;;4974461;28;20034;-69
2022/01/24 06:58:40;;;;;;;85.13;47.05;;;;;;;;;;4991718;28;20082;-70
2022/01/24 07:01:06;;;;;;;81.80;46.42;;;;;;;;;;4984723;28;20056;-70
2022/01/24 07:03:32;;;;;;;85.88;48.05;;;;;;;;;;4988079;28;20498;-69
2022/01/24 07:05:59;;;;;;;80.40;45.05;;;;;;;;;;4984423;28;20061;-70
2022/01/24 07:08:25;;;;;;;80.80;45.00;;;;;;;;;;4974419;28;20070;-70
2022/01/24 07:10:51;;;;;;;74.97;43.20;;;;;;;;;;4991769;28;20026;-69
2022/01/24 07:13:17;;;;;;;71.25;42.80;;;;;;;;;;4978925;28;20039;-70
2022/01/24 07:16:04;;;;;;;78.00;45.20;;;;;;;;;;4977022;28;20477;-70
2022/01/24 07:20:57;;;;;;;76.43;42.75;;;;;;;;;;4990328;28;20066;-70
2022/01/24 07:23:23;;;;;;;83.22;45.05;;;;;;;;;;4990061;28;20061;-69
2022/01/24 07:25:49;;;;;;;74.72;44.40;;;;;;;;;;4988928;28;20029;-71
2022/01/24 07:28:16;;;;;;;77.88;43.80;;;;;;;;;;4996223;28;20038;-70
2022/01/24 07:30:42;;;;;;;72.28;42.85;;;;;;;;;;4980810;28;20045;-70
2022/01/24 07:33:08;;;;;;;74.07;43.22;;;;;;;;;;4970683;28;20113;-69
2022/01/24 07:35:35;;;;;;;73.30;41.67;;;;;;;;;;4975285;28;20439;-70
2022/01/24 07:38:02;;;;;;;73.53;41.83;;;;;;;;;;4990101;28;20045;-69
2022/01/24 07:40:28;;;;;;;64.90;39.28;;;;;;;;;;4989350;28;20042;-69
2022/01/24 07:45:21;;;;;;;63.10;37.40;;;;;;;;;;4981506;28;20140;-70
2022/01/24 07:47:48;;;;;;;69.88;40.40;;;;;;;;;;4984402;28;20031;-69
2022/01/24 07:50:15;;;;;;;70.78;40.22;;;;;;;;;;4989992;28;20026;-69
2022/01/24 07:52:41;;;;;;;58.75;35.38;;;;;;;;;;4988520;28;20030;-70
2022/01/24 07:55:07;;;;;;;62.00;36.17;;;;;;;;;;4978861;28;20030;-70
2022/01/24 07:57:33;;;;;;;62.83;36.78;;;;;;;;;;4970308;28;20125;-70
2022/01/24 07:59:59;;;;;;;56.95;34.67;;;;;;;;;;5006609;28;20529;-69
2022/01/24 08:02:25;;;;;;;62.72;36.35;;;;;;;;;;4978546;28;20496;-69
2022/01/24 08:04:51;;;;;;;58.60;37.35;;;;;;;;;;4992359;28;20066;-69
2022/01/24 08:07:17;;;;;;;60.63;36.55;;;;;;;;;;4993016;28;20061;-70
2022/01/24 08:09:43;;;;;;;63.17;38.30;;;;;;;;;;4995682;28;20027;-69
2022/01/24 08:12:10;;;;;;;60.33;36.42;;;;;;;;;;4979380;28;20523;-70
2022/01/24 08:14:36;;;;;;;63.42;38.50;;;;;;;;;;4978508;28;20516;-69
2022/01/24 08:17:03;;;;;;;64.35;38.03;;;;;;;;;;4973602;28;20062;-69
2022/01/24 08:19:29;;;;;;;65.22;38.55;;;;;;;;;;4973326;28;20070;-69
2022/01/24 08:21:56;;;;;;;66.32;39.17;;;;;;;;;;4972476;28;20086;-69
2022/01/24 08:24:23;;;;;;;70.97;43.58;;;;;;;;;;4988183;28;20687;-69
2022/01/24 08:26:49;;;;;;;67.40;40.50;;;;;;;;;;4985226;28;20034;-69
2022/01/24 08:29:15;;;;;;;68.85;38.30;;;;;;;;;;5002036;28;20089;-69
2022/01/24 08:31:41;;;;;;;65.68;38.55;;;;;;;;;;4973625;28;20110;-71
2022/01/24 08:34:07;;;;;;;68.90;41.53;;;;;;;;;;5012121;28;20457;-70
2022/01/24 08:36:34;;;;;;;72.57;46.47;;;;;;;;;;4992874;28;20023;-70
2022/01/24 08:39:06;;;;;;;78.38;44.70;;;;;;;;;;4978750;28;20027;-70
2022/01/24 08:41:49;;;;;;;73.18;44.10;;;;;;;;;;4993277;28;20061;-70
2022/01/24 08:46:45;;;;;;;67.63;41.28;;;;;;;;;;4973516;28;20066;-70
2022/01/24 08:49:11;;;;;;;71.57;40.72;;;;;;;;;;4973473;28;20053;-70
2022/01/24 08:51:37;;;;;;;72.30;43.50;;;;;;;;;;4972741;28;20038;-69
2022/01/24 08:54:04;;;;;;;75.80;46.13;;;;;;;;;;4988869;28;20081;-69
2022/01/24 08:56:30;;;;;;;76.38;43.15;;;;;;;;;;4973646;28;20031;-70
2022/01/24 08:58:56;;;;;;;82.32;47.03;;;;;;;;;;4972142;28;20040;-70
2022/01/24 09:01:23;;;;;;;77.68;45.45;;;;;;;;;;4973028;28;20436;-70
2022/01/24 09:03:49;;;;;;;84.43;46.70;;;;;;;;;;4973529;28;20037;-70
2022/01/24 09:06:17;;;;;;;78.43;44.72;;;;;;;;;;4978171;28;20026;-69
2022/01/24 09:08:44;;;;;;;76.65;43.85;;;;;;;;;;4990349;28;20035;-70
2022/01/24 09:11:10;;;;;;;88.10;46.83;;;;;;;;;;4980593;28;20125;-69
2022/01/24 09:13:37;;;;;;;78.47;46.53;;;;;;;;;;4991987;28;20036;-70
2022/01/24 09:16:03;;;;;;;73.78;44.03;;;;;;;;;;4992053;28;20037;-69
2022/01/24 09:18:29;;;;;;;78.78;45.63;;;;;;;;;;4991867;28;20077;-69
2022/01/24 09:20:56;;;;;;;78.07;44.72;;;;;;;;;;4981992;28;20112;-70
2022/01/24 09:23:22;;;;;;;77.22;43.35;;;;;;;;;;4972446;28;20027;-69
2022/01/24 09:25:49;;;;;;;79.07;45.40;;;;;;;;;;4972373;28;20090;-69
2022/01/24 09:28:15;;;;;;;77.60;45.10;;;;;;;;;;4972368;28;20150;-69
2022/01/24 09:30:42;;;;;;;79.93;44.40;;;;;;;;;;4975856;28;20472;-70
2022/01/24 09:33:11;;;;;;;79.25;45.22;;;;;;;;;;4990266;28;20238;-70
2022/01/24 09:35:38;;;;;;;84.00;46.15;;;;;;;;;;4978282;28;20310;-70
2022/01/24 09:38:05;;;;;;;83.00;47.33;;;;;;;;;;4972499;28;20169;-71
2022/01/24 09:40:32;;;;;;;79.95;46.50;;;;;;;;;;4970838;28;20030;-69
2022/01/24 09:42:58;;;;;;;82.70;47.67;;;;;;;;;;4972237;28;20035;-69
2022/01/24 09:45:25;;;;;;;82.13;47.40;;;;;;;;;;5003449;28;20054;-69
2022/01/24 09:47:53;;;;;;;82.93;45.83;;;;;;;;;;4972084;28;20064;-68
2022/01/24 09:50:19;;;;;;;85.50;47.88;;;;;;;;;;4988629;28;20026;-69
2022/01/24 09:52:46;;;;;;;84.43;46.42;;;;;;;;;;4972901;28;20085;-69
2022/01/24 09:55:13;;;;;;;85.63;46.55;;;;;;;;;;4972232;28;20062;-70
2022/01/24 09:57:41;;;;;;;80.60;45.42;;;;;;;;;;4972109;28;20212;-70
2022/01/24 10:00:08;;;;;;;77.13;44.90;;;;;;;;;;4971487;28;20058;-70
2022/01/24 10:02:35;;;;;;;76.85;45.60;;;;;;;;;;4988578;28;20042;-69
2022/01/24 10:05:21;;;;;;;82.32;46.53;;;;;;;;;;4972885;28;20116;-69
2022/01/24 10:07:53;;;;;;;69.85;41.47;;;;;;;;;;4972040;28;20148;-70
2022/01/24 10:10:47;;;;;;;72.35;41.05;;;;;;;;;;4970127;28;20042;-69
2022/01/24 10:19:16;;;;;;;81.40;40.35;;;;;;;;;;4972328;28;20113;-69
2022/01/24 10:21:42;;;;;;;64.35;36.53;;;;;;;;;;4970584;28;20038;-69
2022/01/24 10:24:08;;;;;;;58.85;35.35;;;;;;;;;;4971024;28;20034;-70
2022/01/24 10:26:34;;;;;;;61.65;35.50;;;;;;;;;;4971056;28;20098;-69
2022/01/24 10:29:00;;;;;;;54.20;34.63;;;;;;;;;;4971070;28;20034;-70
2022/01/24 10:31:30;;;;;;;54.97;32.83;;;;;;;;;;4975898;28;20061;-69
2022/01/24 10:34:04;;;;;;;48.30;31.00;;;;;;;;;;4990296;28;20027;-70
2022/01/24 10:36:33;;;;;;;45.38;28.92;;;;;;;;;;4989302;28;20038;-70
2022/01/24 10:39:09;;;;;;;50.63;32.60;;;;;;;;;;4990510;28;20076;-69
2022/01/24 10:41:51;;;;;;;60.00;37.58;;;;;;;;;;4990130;28;20041;-70
2022/01/24 10:44:34;;;;;;;56.80;36.53;;;;;;;;;;4981272;28;20030;-70
2022/01/24 10:47:14;;;;;;;58.53;36.45;;;;;;;;;;4970855;28;20078;-70
2022/01/24 10:49:40;;;;;;;53.72;33.92;;;;;;;;;;4971355;28;20029;-69
2022/01/24 10:52:14;;;;;;;56.30;35.17;;;;;;;;;;4971298;28;20039;-70
2022/01/24 10:54:40;;;;;;;51.53;32.70;;;;;;;;;;4993447;28;20027;-70
2022/01/24 10:57:06;;;;;;;56.08;35.55;;;;;;;;;;4980275;28;20054;-70
2022/01/24 10:59:34;;;;;;;53.38;35.00;;;;;;;;;;5001143;28;20505;-70
2022/01/24 11:02:04;;;;;;;54.25;34.92;;;;;;;;;;4970485;28;20033;-70
2022/01/24 11:04:33;;;;;;;56.83;36.05;;;;;;;;;;4971340;28;20034;-69
2022/01/24 11:07:01;;;;;;;52.75;34.90;;;;;;;;;;4971043;28;20097;-69
2022/01/24 11:09:32;;;;;;;51.33;33.30;;;;;;;;;;4970839;28;20029;-69
2022/01/24 11:12:00;;;;;;;60.92;35.40;;;;;;;;;;4970787;28;20155;-69
2022/01/24 11:14:28;;;;;;;54.83;35.20;;;;;;;;;;4979882;28;20507;-68
2022/01/24 11:16:56;;;;;;;52.25;34.15;;;;;;;;;;4977193;28;20019;-69
2022/01/24 11:20:01;;;;;;;54.97;35.30;;;;;;;;;;4980507;28;20077;-71
2022/01/24 11:22:21;;;;;;;55.33;34.60;;;;;;;;;;4985320;28;20038;-69
2022/01/24 11:24:54;;;;;;;56.97;34.80;;;;;;;;;;4986192;28;20089;-68
2022/01/24 11:27:20;;;;;;;54.75;36.17;;;;;;;;;;4988503;28;20029;-68
2022/01/24 11:29:46;;;;;;;55.50;35.25;;;;;;;;;;4983354;28;20038;-71
2022/01/24 11:32:27;;;;;;;52.95;34.72;;;;;;;;;;4976632;28;20035;-68
2022/01/24 11:34:54;;;;;;;52.67;33.78;;;;;;;;;;4983635;28;20534;-68
2022/01/24 11:37:37;;;;;;;52.10;32.90;;;;;;;;;;4989082;28;20066;-69
2022/01/24 11:40:05;;;;;;;46.72;31.20;;;;;;;;;;4985630;28;20026;-70
2022/01/24 11:42:34;;;;;;;82.32;32.92;;;;;;;;;;4992676;28;20041;-68
2022/01/24 11:45:05;;;;;;;58.63;31.08;;;;;;;;;;4990967;28;20101;-68
2022/01/24 11:47:31;;;;;;;52.78;35.35;;;;;;;;;;4978515;28;20042;-70
2022/01/24 11:49:58;;;;;;;107.70;37.17;;;;;;;;;;4989755;28;20018;-68
2022/01/24 11:52:34;;;;;;;51.97;33.45;;;;;;;;;;4986561;28;20476;-71
2022/01/24 11:57:58;;;;;;;53.22;32.85;;;;;;;;;;4985277;28;20325;-69
2022/01/24 12:00:26;;;;;;;54.50;33.35;;;;;;;;;;4986205;28;20074;-69
2022/01/24 12:02:52;;;;;;;59.78;31.60;;;;;;;;;;4986990;28;20066;-69
2022/01/24 12:05:22;;;;;;;53.10;32.50;;;;;;;;;;4927434;28;20141;-69
2022/01/24 12:07:52;;;;;;;56.92;31.85;;;;;;;;;;4991980;28;20034;-70
2022/01/24 12:10:22;;;;;;;68.15;32.72;;;;;;;;;;4991657;28;20030;-69
2022/01/24 12:12:50;;;;;;;55.05;33.97;;;;;;;;;;4986341;28;20046;-71
2022/01/24 12:15:35;;;;;;;51.40;32.83;;;;;;;;;;4990228;28;20154;-69
2022/01/24 12:18:02;;;;;;;55.97;32.58;;;;;;;;;;4980038;28;20039;-69
2022/01/24 12:20:48;;;;;;;50.28;31.92;;;;;;;;;;4978483;28;20027;-69
2022/01/24 12:23:24;;;;;;;58.40;34.03;;;;;;;;;;4977580;28;20068;-70
2022/01/24 12:25:58;;;;;;;50.65;31.65;;;;;;;;;;4977778;28;20043;-71
2022/01/24 12:28:25;;;;;;;52.55;32.65;;;;;;;;;;4973918;28;20097;-70
2022/01/24 12:30:57;;;;;;;45.65;30.10;;;;;;;;;;4973385;28;20030;-69
2022/01/24 12:33:38;;;;;;;49.92;31.50;;;;;;;;;;4980951;28;20113;-70
2022/01/24 12:36:09;;;;;;;52.00;30.40;;;;;;;;;;4993140;28;20364;-69
2022/01/24 12:38:48;;;;;;;48.22;30.85;;;;;;;;;;4993053;28;20042;-69
2022/01/24 12:41:20;;;;;;;52.95;31.23;;;;;;;;;;4993057;28;20046;-69
2022/01/24 12:44:11;;;;;;;120.45;34.45;;;;;;;;;;4975933;28;20026;-71
2022/01/24 12:46:38;;;;;;;48.95;29.88;;;;;;;;;;4973242;28;20130;-70
2022/01/24 12:49:05;;;;;;;60.65;31.98;;;;;;;;;;5014844;28;20037;-69
2022/01/24 12:51:33;;;;;;;49.25;30.52;;;;;;;;;;4991915;28;20027;-69
2022/01/24 12:54:02;;;;;;;45.58;29.00;;;;;;;;;;4990744;28;20026;-70
2022/01/24 12:56:29;;;;;;;46.05;29.55;;;;;;;;;;4991517;28;20069;-69
2022/01/24 12:58:57;;;;;;;45.10;29.05;;;;;;;;;;5001692;28;20038;-70
2022/01/24 13:01:23;;;;;;;54.38;31.38;;;;;;;;;;4977751;28;20567;-69
2022/01/24 13:03:57;;;;;;;51.25;30.67;;;;;;;;;;4990330;28;20034;-70
2022/01/24 13:06:25;;;;;;;60.42;29.95;;;;;;;;;;4992102;28;20030;-69
2022/01/24 13:09:18;;;;;;;54.00;28.73;;;;;;;;;;4989596;28;20479;-70
2022/01/24 13:11:49;;;;;;;47.78;28.75;;;;;;;;;;4977986;28;20062;-69
2022/01/24 13:25:09;;;;;;;44.25;26.52;;;;;;;;;;4982818;28;20103;-69
2022/01/24 13:27:39;;;;;;;45.88;25.23;;;;;;;;;;4984328;28;20112;-69
2022/01/24 13:30:06;;;;;;;41.63;26.20;;;;;;;;;;4972303;28;20027;-69
2022/01/24 13:32:48;;;;;;;43.88;26.10;;;;;;;;;;4982748;28;20042;-70
2022/01/24 13:35:19;;;;;;;43.25;27.25;;;;;;;;;;4972105;28;20023;-69
2022/01/24 13:37:45;;;;;;;42.25;27.38;;;;;;;;;;4980819;28;20057;-71
2022/01/24 13:40:12;;;;;;;38.17;25.15;;;;;;;;;;4984235;28;20097;-69
2022/01/24 13:42:38;;;;;;;38.92;24.58;;;;;;;;;;4990405;28;20042;-69
2022/01/24 13:45:05;;;;;;;39.03;25.90;;;;;;;;;;4991480;28;20162;-70
2022/01/24 13:47:31;;;;;;;37.05;25.05;;;;;;;;;;4991425;28;20030;-70
2022/01/24 13:49:57;;;;;;;36.50;24.45;;;;;;;;;;4980748;28;20045;-70
2022/01/24 13:52:28;;;;;;;39.20;25.98;;;;;;;;;;4974918;28;20031;-72
2022/01/24 13:54:54;;;;;;;36.13;24.80;;;;;;;;;;4984386;28;20030;-70
2022/01/24 13:57:20;;;;;;;43.33;26.52;;;;;;;;;;4980777;28;20057;-69
2022/01/24 13:59:46;;;;;;;45.08;26.02;;;;;;;;;;4995959;28;20039;-70
2022/01/24 14:02:22;;;;;;;40.88;26.83;;;;;;;;;;4984640;28;20045;-71
2022/01/24 14:04:53;;;;;;;43.92;28.77;;;;;;;;;;4974831;28;20085;-71
2022/01/24 14:07:19;;;;;;;;;;;;;;;;;;4982146;28;20084;-71
2022/01/24 14:09:46;;;;;;;40.75;25.20;;;;;;;;;;5003848;28;20372;-70
2022/01/24 14:12:27;;;;;;;41.92;25.65;;;;;;;;;;4981823;28;20102;-68
2022/01/24 14:15:02;;;;;;;39.97;25.35;;;;;;;;;;4982170;28;20476;-69
2022/01/24 14:20:17;;;;;;;54.10;26.30;;;;;;;;;;4977204;28;20046;-69
2022/01/24 14:22:45;;;;;;;37.28;23.23;;;;;;;;;;4981582;28;20030;-69
2022/01/24 14:25:23;;;;;;;49.08;27.10;;;;;;;;;;4982520;28;20114;-67
2022/01/24 14:27:49;;;;;;;66.47;33.58;;;;;;;;;;4976704;28;20073;-68
2022/01/24 14:30:20;;;;;;;52.63;31.15;;;;;;;;;;4984526;28;20031;-70
2022/01/24 14:33:04;;;;;;;58.45;32.75;;;;;;;;;;4976398;28;20098;-68
2022/01/24 14:35:35;;;;;;;52.20;27.02;;;;;;;;;;4979425;28;20034;-68
2022/01/24 14:38:01;;;;;;;45.13;26.63;;;;;;;;;;4971094;28;20121;-69
2022/01/24 14:40:46;;;;;;;50.03;28.75;;;;;;;;;;4993398;28;20133;-69
2022/01/24 14:46:05;;;;;;;45.78;26.88;;;;;;;;;;4975442;28;20052;-68
2022/01/24 14:48:31;;;;;;;37.95;22.77;;;;;;;;;;4975045;28;20050;-68
2022/01/24 14:50:57;;;;;;;58.63;29.80;;;;;;;;;;4997336;28;20034;-68
2022/01/24 14:53:28;;;;;;;42.55;24.02;;;;;;;;;;4986108;28;20034;-68
2022/01/24 14:55:55;;;;;;;;;;;;;;;;;;4988389;28;20030;-68
2022/01/24 14:58:21;;;;;;;51.95;29.48;;;;;;;;;;4972003;28;20371;-69
2022/01/24 15:00:47;;;;;;;45.33;26.67;;;;;;;;;;4988630;28;20523;-69
2022/01/24 15:03:13;;;;;;;37.65;22.73;;;;;;;;;;4984528;28;21063;-69
2022/01/24 15:05:39;;;;;;;39.75;22.13;;;;;;;;;;4989456;28;20030;-68
2022/01/24 15:08:05;;;;;;;43.35;21.73;;;;;;;;;;4984140;28;20493;-68
2022/01/24 15:10:31;;;;;;;90.47;52.15;;;;;;;;;;5001038;28;20040;-69
2022/01/24 15:13:03;;;;;;;31.48;20.95;;;;;;;;;;4979516;28;20034;-68
2022/01/24 15:15:32;;;;;;;32.20;20.50;;;;;;;;;;4992564;28;20031;-69
2022/01/24 15:26:03;;;;;;;50.63;24.88;;;;;;;;;;4978854;28;20590;-69
2022/01/24 15:28:29;;;;;;;41.22;23.60;;;;;;;;;;4985339;28;20037;-69
2022/01/24 15:30:55;;;;;;;48.65;22.95;;;;;;;;;;4984802;28;20031;-69
2022/01/24 15:33:21;;;;;;;47.38;23.60;;;;;;;;;;4984514;28;20038;-69
2022/01/24 15:35:47;;;;;;;47.25;22.80;;;;;;;;;;4987313;28;20062;-69
2022/01/24 15:38:14;;;;;;;36.10;21.20;;;;;;;;;;4982056;28;20035;-68
2022/01/24 15:40:41;;;;;;;42.70;22.90;;;;;;;;;;4985570;28;20057;-69
2022/01/24 15:43:37;;;;;;;38.70;22.23;;;;;;;;;;4985044;28;20077;-68
2022/01/24 15:46:22;;;;;;;41.20;24.50;;;;;;;;;;4984922;28;20074;-68
2022/01/24 15:48:45;;;;;;;39.90;23.60;;;;;;;;;;4981345;28;20489;-68
2022/01/24 15:51:12;;;;;;;36.88;22.70;;;;;;;;;;4979773;28;20027;-68
2022/01/24 15:53:41;;;;;;;38.70;22.10;;;;;;;;;;4980208;28;20030;-69
2022/01/24 15:56:16;;;;;;;56.78;24.65;;;;;;;;;;4990187;28;20050;-69
2022/01/24 15:58:42;;;;;;;50.25;23.55;;;;;;;;;;4984251;28;20501;-69
2022/01/24 16:01:09;;;;;;;38.75;23.30;;;;;;;;;;4986645;28;20471;-69
2022/01/24 16:03:35;;;;;;;36.33;23.05;;;;;;;;;;4981641;28;20368;-69
2022/01/24 16:06:02;;;;;;;35.22;21.95;;;;;;;;;;4982462;28;20049;-69
2022/01/24 16:08:28;;;;;;;36.95;22.02;;;;;;;;;;4985635;28;20026;-69
2022/01/24 16:10:54;;;;;;;37.75;22.95;;;;;;;;;;4985711;28;20033;-68
2022/01/24 16:13:22;;;;;;;37.20;22.13;;;;;;;;;;4979984;28;20030;-68
2022/01/24 16:15:48;;;;;;;34.10;21.73;;;;;;;;;;4984771;28;20026;-70
2022/01/24 16:18:17;;;;;;;38.38;22.73;;;;;;;;;;4988771;28;20479;-69
2022/01/24 16:21:25;;;;;;;41.45;23.08;;;;;;;;;;4985283;28;20041;-69
2022/01/24 16:23:43;;;;;;;37.70;22.27;;;;;;;;;;4984063;28;20042;-69
2022/01/24 16:26:09;;;;;;;42.78;24.23;;;;;;;;;;4983387;28;20030;-69
2022/01/24 16:28:35;;;;;;;42.45;24.95;;;;;;;;;;4978393;28;20567;-69
2022/01/24 16:31:03;;;;;;;40.92;25.20;;;;;;;;;;4981015;28;20023;-69
2022/01/24 16:33:32;;;;;;;40.80;23.30;;;;;;;;;;4987158;28;20026;-69
2022/01/24 16:36:00;;;;;;;42.50;22.17;;;;;;;;;;4981208;28;20035;-69
2022/01/24 16:38:27;;;;;;;35.67;21.23;;;;;;;;;;4982499;28;20031;-69